Aviation Digital Data Service (ADDS)

Output produced by METARs form (1738 UTC 27 May 2017)
found at http://www.aviationweather.gov/adds/metars/
 
HTAR 271400Z 10005KT 9999 FEW028 23/18 Q1017
HTDA 271400Z 18004KT 9999 FEW016 BKN080 28/24 Q1013 NOSIG
TAF HTDA 271700Z 2718/2824 16005KT 9999 SCT015 BKN080 
     BECMG 2718/2721 00000KT 
     TEMPO 2803/2807 SHRA BKN012
       
HTDO 271400Z 15005KT 9999 FEW034 BKN310 29/10 Q1017 NOSIG
HTDO 271700Z 2718/2818 10010KT 9999 FEW022
       
HTIR 271400Z 00000KT 9999 SCT024 27/13 Q1020
HTKJ 271400Z 09011KT 9999 FEW036TCU SCT037 26/19 Q1016 NOSIG
TAF HTKJ 271700Z 2718/2818 12010KT 9999 BKN030 
     BECMG 2718/2721 FEW028 
     BECMG 2800/2803 00000KT BKN024 
     BECMG 2806/2809 11010KT
       
HTMT 271400Z 19004KT 9999 SCT023 FEW024CB BKN080 28/23 Q1013
HTMW 271400Z 30006KT 9999 FEW027 SCT110 29/18 Q1014 NOSIG
HTMW 271700Z 2718/2818 00000KT 9999 FEW024 SCT100 
     BECMG 2805/2807 09010KT FEW025 
     BECMG 2812/2814 30010KT FEW024 SCT100
       
HTZA 271400Z 18005KT 9999 SCT016 FEW018CB BKN080 27/23 Q1012 NOSIG
HTZA 271700Z 2718/2818 15010KT 9999 SCT018 FEW020CB SCT080 
     BECMG 2800/2802 22010KT BKN016 FEW018CB BKN070 
     PROB30 
     TEMPO 2806/2812 14010KT 5000 TSRA 
     BECMG 2816/2818 BKN018 FEW020CB SCT080